DW4509 Weather Reports


Display with metric or nautical units.
time (UTC)temp
F
wind
direction
speed
MPH
gust
MPH
rain 1hr
in
rain 24hr
in
rain mn
in
humidity
%
barometer
mb
20230130043912 44 293 4.0 16.0 0.00 0.00 0.00 72 1019.8
20230130042914 44 201 5.0 17.0 0.00 0.00 0.00 72 1019.7
20230130040815 44 297 4.0 15.0 0.00 0.00 0.00 73 1019.5
20230130034625 43 172 1.0 8.0 0.00 0.00 0.00 75 1019.8
20230130033614 43 252 1.0 7.0 0.00 0.00 0.00 75 1019.7
20230130032632 43 301 1.0 9.0 0.00 0.00 0.00 75 1019.7
20230130030542 43 278 0.0 6.0 0.00 0.00 0.00 75 1019.6
20230130025605 43 266 1.0 10.0 0.00 0.00 0.00 74 1019.6
20230130024533 44 285 2.0 10.0 0.00 0.00 0.00 73 1019.7
20230130023535 43 214 1.0 7.0 0.00 0.00 0.00 74 1019.7
20230130022505 44 288 2.0 16.0 0.00 0.00 0.00 74 1019.6
20230130021437 44 278 3.0 16.0 0.00 0.00 0.00 74 1019.5
20230130020439 44 231 3.0 10.0 0.00 0.00 0.00 74 1019.5
20230130015435 44 293 2.0 11.0 0.00 0.00 0.00 75 1019.2
20230130014431 44 333 3.0 11.0 0.00 0.00 0.00 75 1019.2
20230130013405 44 269 1.0 10.0 0.00 0.00 0.00 75 1019.1
20230130012421 44 256 2.0 10.0 0.00 0.00 0.00 75 1019.2
20230130011427 44 285 1.0 8.0 0.00 0.00 0.00 74 1019.1
20230130010432 44 264 1.0 5.0 0.00 0.00 0.00 74 1019.2
20230130005454 44 282 0.0 9.0 0.00 0.00 0.00 73 1019.4
20230130002143 46 271 0.0 5.0 0.00 0.00 0.00 73 1019.6
20230130001205 46 237 1.0 13.0 0.00 0.00 0.00 74 1019.4
20230130000131 46 266 3.0 13.0 0.00 0.00 0.00 74 1019.3
20230129235106 47 234 2.0 8.0 0.00 0.00 0.00 78 1018.8
20230129234123 46 239 0.0 6.0 0.00 0.00 0.00 80 1018.9
20230129231922 47 303 2.0 10.0 0.00 0.00 0.00 80 1018.7
20230129230922 47 318 2.0 12.0 0.00 0.00 0.00 81 1018.6
20230129225902 47 269 2.0 12.0 0.00 0.00 0.00 82 1018.4
20230129223732 47 309 0.0 6.0 0.00 0.00 0.00 87 1017.8
20230129222730 47 242 0.0 6.0 0.00 0.00 0.00 86 1017.7
20230129221709 47 259 0.0 6.0 0.00 0.00 0.00 86 1017.7
20230129220706 46 309 0.0 5.0 0.00 0.00 0.00 86 1017.8
20230129214542 46 60 0.0 0.0 0.00 0.00 0.00 85 1018.1
20230129213547 46 273 0.0 3.0 0.00 0.00 0.00 85 1018.2
20230129212552 46 92 0.0 1.0 0.00 0.00 0.00 84 1018.2
20230129211542 46 89 0.0 1.0 0.00 0.00 0.00 83 1018.3
20230129210518 46 250 0.0 3.0 0.00 0.00 0.00 83 1018.2
20230129205540 46 246 0.0 3.0 0.00 0.00 0.00 82 1018.1
20230129204600 46 259 0.0 5.0 0.00 0.00 0.00 82 1018.3
20230129203550 46 258 0.0 5.0 0.00 0.00 0.00 82 1018.2
20230129202540 46 257 0.0 5.0 0.00 0.00 0.00 81 1018.1
20230129201559 46 245 1.0 10.0 0.00 0.00 0.00 81 1018.4
20230129200614 46 290 2.0 10.0 0.00 0.00 0.00 81 1018.8
20230129195636 46 281 2.0 10.0 0.00 0.00 0.00 81 1018.8
20230129194610 46 276 1.0 10.0 0.00 0.00 0.00 81 1018.8
20230129193615 45 295 0.0 3.0 0.00 0.00 0.00 82 1018.5
20230129192246 46 216 0.0 1.0 0.00 0.00 0.00 81 1018.4
20230129191248 46 255 0.0 3.0 0.00 0.00 0.00 81 1018.6
20230129190215 46 243 0.0 3.0 0.00 0.00 0.00 82 1018.7
20230129185140 46 263 0.0 1.0 0.00 0.00 0.00 82 1018.9
20230129184152 46 141 0.0 2.0 0.00 0.00 0.00 82 1019.2
20230129183123 46 340 0.0 6.0 0.00 0.00 0.00 83 1019.5
20230129181006 46 225 0.0 1.0 0.00 0.00 0.00 83 1020.1
20230129175948 44 210 0.0 1.0 0.00 0.00 0.00 84 1019.8
20230129174947 44 283 0.0 2.0 0.00 0.00 0.00 85 1019.8
20230129173958 44 101 0.0 4.0 0.00 0.00 0.00 84 1019.9
20230129173002 44 95 0.0 0.0 0.00 0.00 0.00 82 1019.8
20230129171950 45 84 0.0 0.0 0.00 0.00 0.00 82 1020.0
20230129170942 45 354 0.0 1.0 0.00 0.00 0.00 82 1019.9
20230129165940 45 183 0.0 0.0 0.00 0.00 0.00 81 1019.8
20230129164922 45 100 0.0 5.0 0.00 0.00 0.00 81 1019.9
20230129163849 45 300 0.0 3.0 0.00 0.00 0.00 81 1019.7
20230129162816 45 249 0.0 7.0 0.00 0.00 0.00 80 1019.5
20230129161750 46 271 0.0 7.0 0.00 0.00 0.00 80 1019.7
20230129160729 46 270 0.0 7.0 0.00 0.00 0.00 80 1020.1
20230129155658 46 356 1.0 7.0 0.00 0.00 0.00 80 1020.1
20230129154720 46 267 1.0 6.0 0.00 0.00 0.00 80 1020.1
20230129153730 46 295 0.0 4.0 0.00 0.00 0.00 79 1020.3
20230129152659 46 85 0.0 0.0 0.00 0.00 0.00 79 1020.7
20230129151716 46 37 0.0 3.0 0.00 0.00 0.00 79 1020.8
20230129150735 46 34 0.0 4.0 0.00 0.00 0.00 79 1020.9
20230129145758 46 250 1.0 7.0 0.00 0.00 0.00 79 1021.1
20230129144820 46 242 0.0 7.0 0.00 0.00 0.00 79 1021.2
20230129143803 45 303 0.0 2.0 0.00 0.00 0.00 79 1021.5
20230129142737 45 238 0.0 0.0 0.00 0.00 0.00 79 1021.7
20230129141707 46 270 0.0 5.0 0.00 0.00 0.00 79 1021.7
20230129140643 45 262 1.0 9.0 0.00 0.00 0.00 78 1021.9
20230129135651 45 120 2.0 9.0 0.00 0.00 0.00 78 1022.0
20230129134705 46 268 1.0 8.0 0.00 0.00 0.00 78 1022.0
20230129132503 46 220 0.0 5.0 0.00 0.00 0.00 76 1022.4
20230129131512 46 82 1.0 9.0 0.00 0.00 0.00 75 1022.5
20230129125321 46 205 2.0 9.0 0.00 0.00 0.00 75 1022.8
20230129124253 45 243 2.0 7.0 0.00 0.00 0.00 75 1023.0
20230129123257 45 61 1.0 8.0 0.00 0.00 0.00 75 1023.1
20230129122242 46 262 2.0 10.0 0.00 0.00 0.00 75 1023.5
20230129121249 46 86 2.0 10.0 0.00 0.00 0.00 74 1023.4
20230129120249 45 72 2.0 6.0 0.00 0.00 0.00 73 1023.3
20230129115230 45 112 2.0 8.0 0.00 0.00 0.00 74 1023.5
20230129112617 44 235 0.0 6.0 0.00 0.00 0.00 78 1023.8
20230129111631 44 240 0.0 10.0 0.00 0.00 0.00 77 1024.1
20230129110603 44 283 0.0 6.0 0.00 0.00 0.00 77 1024.0
20230129104458 44 278 1.0 7.0 0.00 0.00 0.00 77 1024.5
20230129103429 43 277 0.0 3.0 0.00 0.00 0.00 80 1024.5
20230129102417 43 262 0.0 0.0 0.00 0.00 0.00 81 1024.6
20230129101438 43 299 0.0 0.0 0.00 0.00 0.00 81 1024.5
20230129100419 42 233 0.0 1.0 0.00 0.00 0.00 81 1024.7
20230129095437 42 302 0.0 0.0 0.00 0.00 0.00 81 1024.6
20230129094424 42 262 0.0 4.0 0.00 0.00 0.00 81 1024.9
20230129093428 41 281 0.0 0.0 0.00 0.00 0.00 83 1025.0
20230129092444 41 303 0.0 0.0 0.00 0.00 0.00 85 1025.2
20230129091459 40 288 0.0 0.0 0.00 0.00 0.00 86 1025.3
20230129090457 40 245 0.0 0.0 0.00 0.00 0.00 87 1025.3
20230129085433 39 272 0.0 0.0 0.00 0.00 0.00 88 1025.3
20230129084407 39 248 0.0 0.0 0.00 0.00 0.00 88 1025.3
20230129083425 39 248 0.0 0.0 0.00 0.00 0.00 87 1025.3
20230129082422 39 104 0.0 0.0 0.00 0.00 0.00 88 1025.5
20230129081439 39 107 0.0 1.0 0.00 0.00 0.00 88 1025.5
20230129075312 40 214 0.0 0.0 0.00 0.00 0.00 87 1025.5
20230129074326 40 105 0.0 0.0 0.00 0.00 0.00 88 1025.6
20230129072247 41 13 0.0 0.0 0.00 0.00 0.00 89 1025.6
20230129071250 41 300 0.0 0.0 0.00 0.00 0.00 89 1025.9
20230129064037 41 57 0.0 0.0 0.00 0.00 0.00 89 1026.1
20230129063043 41 56 0.0 0.0 0.00 0.00 0.00 89 1026.1
20230129062052 41 8 0.0 0.0 0.00 0.00 0.00 90 1026.1
20230129061051 41 182 0.0 0.0 0.00 0.00 0.00 90 1026.2
20230129060022 40 250 0.0 0.0 0.00 0.00 0.00 90 1026.4
20230129055019 41 31 0.0 0.0 0.00 0.00 0.00 90 1026.5
20230129054002 41 241 0.0 0.0 0.00 0.00 0.00 90 1026.7
20230129052944 41 311 0.0 0.0 0.00 0.00 0.00 90 1026.8
20230129050834 41 105 0.0 0.0 0.00 0.00 0.00 90 1027.0
20230129045855 41 31 0.0 0.0 0.00 0.00 0.00 90 1027.1